createdAt,value
2019-06-27T00:02:25.001Z,16.00
2019-06-27T00:08:29.359Z,15.90
2019-06-27T00:14:33.670Z,15.90
2019-06-27T00:20:38.160Z,15.90
2019-06-27T00:26:56.130Z,15.80
2019-06-27T00:32:48.316Z,15.80
2019-06-27T00:38:52.506Z,15.80
2019-06-27T00:44:56.716Z,15.80
2019-06-27T00:51:00.995Z,15.80
2019-06-27T00:57:13.919Z,15.70
2019-06-27T01:03:11.557Z,15.70
2019-06-27T01:09:15.795Z,15.60
2019-06-27T01:15:20.061Z,15.60
2019-06-27T01:21:24.432Z,15.60
2019-06-27T01:27:30.262Z,15.60
2019-06-27T01:33:34.959Z,15.50
2019-06-27T01:39:39.311Z,15.50
2019-06-27T01:45:51.298Z,15.50
2019-06-27T01:51:55.681Z,15.40
2019-06-27T01:57:59.913Z,15.40
2019-06-27T02:04:04.154Z,15.40
2019-06-27T02:10:08.857Z,15.30
2019-06-27T02:16:13.156Z,15.30
2019-06-27T02:22:17.360Z,15.30
2019-06-27T02:28:21.590Z,15.30
2019-06-27T02:34:25.945Z,15.30
2019-06-27T02:40:30.248Z,15.20
2019-06-27T02:46:34.599Z,15.20
2019-06-27T02:52:38.847Z,15.10
2019-06-27T02:58:43.143Z,15.20
2019-06-27T03:04:47.452Z,15.20
2019-06-27T03:10:51.818Z,15.20
2019-06-27T03:16:56.294Z,15.20
2019-06-27T03:23:00.577Z,15.20
2019-06-27T03:29:04.854Z,15.20
2019-06-27T03:35:09.263Z,15.20
2019-06-27T03:41:13.564Z,15.20
2019-06-27T03:47:17.945Z,15.20
2019-06-27T03:53:22.151Z,15.30
2019-06-27T03:59:26.410Z,15.30
2019-06-27T04:05:30.611Z,15.40
2019-06-27T04:11:34.878Z,15.30
2019-06-27T04:17:39.187Z,15.40
2019-06-27T04:23:43.477Z,15.50
2019-06-27T04:29:47.772Z,15.50
2019-06-27T04:35:51.988Z,15.50
2019-06-27T04:41:56.290Z,15.60
2019-06-27T04:48:00.510Z,15.70
2019-06-27T04:54:04.737Z,15.70
2019-06-27T05:00:09.122Z,15.70
2019-06-27T05:06:13.343Z,15.80
2019-06-27T05:12:17.722Z,15.80
2019-06-27T05:18:22.035Z,15.90
2019-06-27T05:24:26.265Z,16.00
2019-06-27T05:30:30.734Z,16.10
2019-06-27T05:36:35.065Z,16.20
2019-06-27T05:42:39.293Z,16.30
2019-06-27T05:48:43.663Z,16.30
2019-06-27T05:54:47.876Z,16.50
2019-06-27T06:00:52.217Z,16.60
2019-06-27T06:06:56.607Z,16.80
2019-06-27T06:13:00.831Z,17.10
2019-06-27T06:19:05.031Z,17.10
2019-06-27T06:25:09.380Z,17.70
2019-06-27T06:31:13.636Z,18.00
2019-06-27T06:37:17.934Z,18.60
2019-06-27T06:43:22.172Z,19.10
2019-06-27T06:49:26.487Z,19.40
2019-06-27T06:55:30.765Z,19.60
2019-06-27T07:01:35.091Z,20.40
2019-06-27T07:07:39.366Z,20.30
2019-06-27T07:13:43.670Z,20.70
2019-06-27T07:19:47.897Z,21.00
2019-06-27T07:25:52.163Z,20.80
2019-06-27T07:31:56.618Z,21.00
2019-06-27T07:38:01.232Z,21.60
2019-06-27T07:44:05.766Z,21.70
2019-06-27T07:50:10.643Z,22.10
2019-06-27T07:56:14.975Z,22.70
2019-06-27T08:02:19.229Z,22.10
2019-06-27T08:08:23.587Z,22.40
2019-06-27T08:14:27.888Z,22.60
2019-06-27T08:20:32.512Z,22.40
2019-06-27T08:26:36.849Z,22.90
2019-06-27T08:32:41.081Z,22.80
2019-06-27T08:38:45.387Z,22.70
2019-06-27T08:44:49.753Z,23.30
2019-06-27T08:50:53.963Z,23.40
2019-06-27T08:56:58.235Z,23.00
2019-06-27T09:03:02.628Z,22.90
2019-06-27T09:09:06.940Z,23.40
2019-06-27T09:15:11.397Z,23.30
2019-06-27T09:21:15.858Z,23.40
2019-06-27T09:27:20.241Z,23.20
2019-06-27T09:33:24.637Z,23.60
2019-06-27T09:39:29.139Z,23.50
2019-06-27T09:45:33.609Z,23.40
2019-06-27T09:51:37.827Z,23.80
2019-06-27T09:57:42.138Z,23.40
2019-06-27T10:03:46.501Z,23.60
2019-06-27T10:09:50.996Z,23.70
2019-06-27T10:15:55.283Z,23.60
2019-06-27T10:21:59.553Z,23.40
2019-06-27T10:28:03.772Z,23.20
2019-06-27T10:34:08.115Z,23.20
2019-06-27T10:40:12.518Z,23.10
2019-06-27T10:46:16.722Z,22.90
2019-06-27T10:52:20.927Z,22.90
2019-06-27T10:58:25.277Z,23.10
2019-06-27T11:04:29.562Z,22.80
2019-06-27T11:10:34.019Z,23.00
2019-06-27T11:16:38.281Z,22.90
2019-06-27T11:22:42.561Z,23.10
2019-06-27T11:28:46.792Z,22.90
2019-06-27T11:34:50.999Z,23.00
2019-06-27T11:40:55.225Z,23.10
2019-06-27T11:46:59.948Z,23.40
2019-06-27T11:53:04.217Z,23.30
2019-06-27T11:59:08.497Z,23.10
2019-06-27T12:05:13.008Z,23.20
2019-06-27T12:11:17.209Z,23.40
2019-06-27T12:17:21.427Z,23.40
2019-06-27T12:23:25.723Z,23.60
2019-06-27T12:29:30.824Z,23.60
2019-06-27T12:35:35.057Z,23.70
2019-06-27T12:41:39.392Z,23.40
2019-06-27T12:47:43.652Z,23.70
2019-06-27T12:53:48.004Z,23.60
2019-06-27T12:59:52.300Z,23.50
2019-06-27T13:05:56.594Z,23.60
2019-06-27T13:12:01.221Z,23.60
2019-06-27T13:18:05.818Z,23.70
2019-06-27T13:24:10.112Z,23.50
2019-06-27T13:30:14.533Z,23.50
2019-06-27T13:36:18.722Z,24.00
2019-06-27T13:42:23.227Z,23.70
2019-06-27T13:48:27.421Z,23.80
2019-06-27T13:54:31.675Z,24.10
2019-06-27T14:00:41.822Z,24.00
2019-06-27T14:06:46.105Z,24.20
2019-06-27T14:12:50.334Z,24.00
2019-06-27T14:18:54.721Z,24.00
2019-06-27T14:24:58.958Z,23.90
2019-06-27T14:31:03.362Z,24.20
2019-06-27T14:37:07.649Z,24.30
2019-06-27T14:43:12.196Z,24.00
2019-06-27T14:49:16.506Z,24.10
2019-06-27T14:55:20.805Z,24.00
2019-06-27T15:01:28.036Z,24.00
2019-06-27T15:07:32.321Z,23.80
2019-06-27T15:13:36.578Z,23.50
2019-06-27T15:19:40.826Z,23.20
2019-06-27T15:25:45.134Z,23.40
2019-06-27T15:31:49.380Z,23.10
2019-06-27T15:37:53.725Z,23.40
2019-06-27T15:43:58.032Z,23.20
2019-06-27T15:50:02.319Z,23.20
2019-06-27T15:56:06.624Z,23.00
2019-06-27T16:02:10.849Z,23.20
2019-06-27T16:08:15.238Z,22.90
2019-06-27T16:14:19.548Z,22.80
2019-06-27T16:20:24.107Z,22.80
2019-06-27T16:26:28.405Z,23.00
2019-06-27T16:32:32.666Z,22.80
2019-06-27T16:38:36.888Z,22.60
2019-06-27T16:44:41.239Z,22.60
2019-06-27T16:50:45.576Z,22.90
2019-06-27T16:56:49.931Z,22.50
2019-06-27T17:02:54.167Z,22.50
2019-06-27T17:08:58.527Z,22.40
2019-06-27T17:15:02.753Z,22.40
2019-06-27T17:21:07.025Z,22.40
2019-06-27T17:27:11.655Z,22.20
2019-06-27T17:33:15.954Z,22.10
2019-06-27T17:39:20.205Z,21.90
2019-06-27T17:45:26.493Z,21.90
2019-06-27T17:51:30.698Z,22.00
2019-06-27T17:57:35.009Z,21.80
2019-06-27T18:03:39.351Z,21.50
2019-06-27T18:09:43.618Z,21.30
2019-06-27T18:15:47.902Z,21.20
2019-06-27T18:21:52.142Z,21.00
2019-06-27T18:27:56.404Z,20.90
2019-06-27T18:34:00.726Z,20.80
2019-06-27T18:40:05.632Z,20.70
2019-06-27T18:46:09.876Z,20.60
2019-06-27T18:52:14.204Z,20.40
2019-06-27T18:58:18.513Z,20.20
2019-06-27T19:04:22.944Z,20.00
2019-06-27T19:10:27.173Z,19.90
2019-06-27T19:16:31.610Z,19.70
2019-06-27T19:22:58.067Z,19.60
2019-06-27T19:29:02.612Z,19.40
2019-06-27T19:41:10.667Z,19.10
2019-06-27T19:53:18.634Z,18.80
2019-06-27T19:59:25.256Z,18.30
2019-06-27T20:05:28.819Z,18.20
2019-06-27T20:11:33.224Z,18.20
2019-06-27T20:17:37.574Z,18.00
2019-06-27T20:23:41.881Z,17.80
2019-06-27T20:47:57.419Z,17.70
2019-06-27T20:54:01.730Z,17.30
2019-06-27T21:00:06.461Z,17.10
2019-06-27T21:06:11.004Z,17.00
2019-06-27T21:12:15.332Z,16.90
2019-06-27T21:18:19.648Z,16.80
2019-06-27T21:24:23.925Z,16.70
2019-06-27T21:30:28.290Z,16.60
2019-06-27T21:36:32.605Z,16.50
2019-06-27T21:42:36.998Z,16.40
2019-06-27T21:48:41.575Z,16.30
2019-06-27T21:54:46.330Z,16.30
2019-06-27T22:00:51.350Z,16.20
2019-06-27T22:06:55.798Z,16.10
2019-06-27T22:13:00.019Z,16.10
2019-06-27T22:19:04.549Z,16.00
2019-06-27T22:25:08.887Z,15.90
2019-06-27T22:31:13.207Z,15.80
2019-06-27T22:37:23.902Z,15.70
2019-06-27T22:43:45.691Z,15.70
2019-06-27T22:49:49.936Z,15.60
2019-06-27T22:55:55.006Z,15.60
2019-06-27T23:01:59.308Z,15.60
2019-06-27T23:08:03.615Z,15.50
2019-06-27T23:14:07.916Z,15.40
2019-06-27T23:20:12.376Z,15.30
2019-06-27T23:26:16.814Z,15.30
2019-06-27T23:32:21.050Z,15.20
2019-06-27T23:38:25.409Z,15.20
2019-06-27T23:44:29.696Z,15.10
2019-06-27T23:50:35.013Z,15.10
